Time;durP1;ratioP1;P1;durP2;ratioP2;P2;SDS_P1;SDS_P2;PMS_P1;PMS_P2;Temp;Humidity;BMP_temperature;BMP_pressure;BME280_temperature;BME280_humidity;BME280_pressure;Samples;Min_cycle;Max_cycle;Signal;HPM_P1;HPM_P2
2022/02/04 00:08:39;;;;;;;72.55;59.85;;;;;;;;;;4958901;28;20019;-83
2022/02/04 00:25:03;;;;;;;76.82;60.50;;;;;;;;;;4947544;29;20086;-85
2022/02/04 00:27:28;;;;;;;74.50;60.65;;;;;;;;;;4949265;28;20015;-83
2022/02/04 00:30:05;;;;;;;79.93;61.70;;;;;;;;;;4981968;28;20022;-84
2022/02/04 00:32:33;;;;;;;80.35;62.50;;;;;;;;;;4973200;28;20050;-83
2022/02/04 00:35:31;;;;;;;74.70;62.92;;;;;;;;;;4973791;28;20023;-84
2022/02/04 00:37:57;;;;;;;76.72;61.47;;;;;;;;;;4976459;28;20015;-83
2022/02/04 00:40:25;;;;;;;78.05;62.05;;;;;;;;;;4995137;28;20011;-83
2022/02/04 00:42:53;;;;;;;77.15;61.72;;;;;;;;;;4984745;28;20026;-84
2022/02/04 00:45:28;;;;;;;83.45;63.40;;;;;;;;;;4978434;28;20016;-84
2022/02/04 00:48:08;;;;;;;87.40;62.47;;;;;;;;;;4978352;28;20038;-85
2022/02/04 00:50:49;;;;;;;82.97;62.92;;;;;;;;;;4985724;28;20023;-84
2022/02/04 00:53:21;;;;;;;80.53;62.15;;;;;;;;;;4976961;28;20030;-83
2022/02/04 01:28:26;;;;;;;82.40;63.28;;;;;;;;;;4964976;28;20019;-83
2022/02/04 01:30:53;;;;;;;86.90;65.93;;;;;;;;;;4978420;28;20022;-84
2022/02/04 01:33:18;;;;;;;81.57;65.60;;;;;;;;;;4969163;28;20023;-84
2022/02/04 01:35:44;;;;;;;74.80;63.63;;;;;;;;;;4969184;28;20030;-86
2022/02/04 01:38:09;;;;;;;82.03;64.50;;;;;;;;;;4962030;28;20037;-85
2022/02/04 01:40:34;;;;;;;77.67;62.73;;;;;;;;;;4961148;28;20260;-83
2022/02/04 01:42:59;;;;;;;86.10;64.50;;;;;;;;;;4967865;28;20034;-83
2022/02/04 01:45:25;;;;;;;84.63;67.23;;;;;;;;;;4964356;28;20015;-85
2022/02/04 01:47:56;;;;;;;89.07;67.87;;;;;;;;;;4963123;28;20050;-83
2022/02/04 01:50:22;;;;;;;88.13;65.38;;;;;;;;;;4973240;28;20011;-84
2022/02/04 01:52:47;;;;;;;80.82;63.00;;;;;;;;;;4964109;28;20015;-86
2022/02/04 01:55:14;;;;;;;82.20;65.20;;;;;;;;;;4967797;28;20095;-86
2022/02/04 01:57:39;;;;;;;;;;;;;;;;;;4971064;28;20022;-85
2022/02/04 02:00:05;;;;;;;97.45;65.68;;;;;;;;;;4989133;28;19906;-84
2022/02/04 02:02:30;;;;;;;84.53;63.23;;;;;;;;;;4966781;28;20770;-84
2022/02/04 02:04:55;;;;;;;85.87;64.57;;;;;;;;;;4963488;28;20317;-83
2022/02/04 02:07:22;;;;;;;98.20;65.33;;;;;;;;;;4962644;28;20059;-83
2022/02/04 02:09:58;;;;;;;89.68;65.55;;;;;;;;;;4968332;28;20015;-83
2022/02/04 02:12:32;;;;;;;89.82;64.65;;;;;;;;;;4966294;28;20671;-84
2022/02/04 02:15:16;;;;;;;85.70;66.43;;;;;;;;;;4963058;28;20027;-84
2022/02/04 02:45:13;;;;;;;91.00;67.07;;;;;;;;;;4970742;28;20471;-84
2022/02/04 02:48:07;;;;;;;92.80;67.20;;;;;;;;;;4953843;28;20031;-83
2022/02/04 02:56:30;;;;;;;94.55;68.10;;;;;;;;;;4965910;29;20046;-83
2022/02/04 02:59:05;;;;;;;90.60;65.80;;;;;;;;;;4964306;28;20026;-83
2022/02/04 03:01:30;;;;;;;90.82;64.43;;;;;;;;;;4969234;28;20051;-83
2022/02/04 03:03:58;;;;;;;84.53;65.57;;;;;;;;;;4972857;28;20026;-83
2022/02/04 03:06:25;;;;;;;88.60;65.82;;;;;;;;;;4962337;28;20027;-84
2022/02/04 03:08:51;;;;;;;87.35;66.32;;;;;;;;;;4966682;28;20027;-84
2022/02/04 03:11:16;;;;;;;97.90;68.60;;;;;;;;;;4975198;28;20015;-84
2022/02/04 03:13:42;;;;;;;95.90;68.17;;;;;;;;;;4961934;28;20016;-84
2022/02/04 03:16:10;;;;;;;88.85;65.70;;;;;;;;;;4960842;28;20027;-84
2022/02/04 03:18:38;;;;;;;93.43;68.13;;;;;;;;;;4963580;28;20046;-84
2022/02/04 03:21:10;;;;;;;97.15;68.75;;;;;;;;;;4972251;28;20474;-84
2022/02/04 03:23:38;;;;;;;95.82;69.78;;;;;;;;;;4963101;28;20054;-84
2022/02/04 03:26:10;;;;;;;92.20;66.15;;;;;;;;;;4963554;28;20111;-85
2022/02/04 03:28:36;;;;;;;97.10;68.45;;;;;;;;;;4961940;28;20023;-84
2022/02/04 03:31:01;;;;;;;89.53;68.90;;;;;;;;;;4976660;28;20062;-84
2022/02/04 03:33:29;;;;;;;91.03;67.57;;;;;;;;;;4963748;28;20027;-83
2022/02/04 03:35:55;;;;;;;90.82;66.75;;;;;;;;;;4962441;29;20042;-83
2022/02/04 03:38:20;;;;;;;93.93;69.07;;;;;;;;;;4963522;28;20030;-83
2022/02/04 03:40:45;;;;;;;95.23;69.17;;;;;;;;;;4976582;28;20050;-83
2022/02/04 03:43:11;;;;;;;96.03;69.00;;;;;;;;;;4959824;28;20118;-84
2022/02/04 03:45:36;;;;;;;94.50;67.10;;;;;;;;;;4962786;28;20023;-84
2022/02/04 03:48:01;;;;;;;89.43;66.50;;;;;;;;;;4959836;28;20026;-84
2022/02/04 03:50:27;;;;;;;98.90;70.17;;;;;;;;;;4977195;28;20026;-83
2022/02/04 03:52:52;;;;;;;98.67;69.23;;;;;;;;;;4963119;29;20058;-83
2022/02/04 03:55:17;;;;;;;99.97;68.60;;;;;;;;;;4969497;28;20026;-83
2022/02/04 03:57:43;;;;;;;101.93;70.33;;;;;;;;;;4973725;28;20028;-83
2022/02/04 04:00:09;;;;;;;91.90;68.27;;;;;;;;;;4986272;28;20030;-83
2022/02/04 04:02:34;;;;;;;97.30;68.82;;;;;;;;;;4973466;28;20028;-83
2022/02/04 04:05:00;;;;;;;99.67;69.20;;;;;;;;;;4975303;28;20051;-83
2022/02/04 04:07:25;;;;;;;91.73;68.70;;;;;;;;;;4966851;28;20434;-83
2022/02/04 04:09:56;;;;;;;95.23;68.63;;;;;;;;;;4968087;28;20011;-84
2022/02/04 04:12:23;;;;;;;97.10;68.13;;;;;;;;;;4962623;28;20051;-82
2022/02/04 04:14:52;;;;;;;92.72;67.82;;;;;;;;;;4961025;28;20114;-83
2022/02/04 04:17:18;;;;;;;104.93;71.32;;;;;;;;;;4959812;28;20031;-82
2022/02/04 04:19:43;;;;;;;100.30;68.13;;;;;;;;;;4967121;28;20129;-83
2022/02/04 04:22:08;;;;;;;93.75;69.25;;;;;;;;;;4965577;28;20023;-83
2022/02/04 04:24:33;;;;;;;93.93;68.67;;;;;;;;;;4961811;28;20050;-83
2022/02/04 04:26:58;;;;;;;101.57;72.77;;;;;;;;;;4961852;28;20074;-83
2022/02/04 04:29:24;;;;;;;102.30;69.93;;;;;;;;;;4974708;28;20019;-85
2022/02/04 04:31:49;;;;;;;92.73;67.93;;;;;;;;;;4975164;28;20027;-84
2022/02/04 04:34:14;;;;;;;96.70;69.47;;;;;;;;;;4964907;29;20031;-84
2022/02/04 04:36:39;;;;;;;93.43;67.83;;;;;;;;;;4965191;29;20023;-83
2022/02/04 04:39:21;;;;;;;96.40;70.60;;;;;;;;;;4962195;28;20090;-84
2022/02/04 04:42:06;;;;;;;92.90;68.40;;;;;;;;;;4973124;28;20024;-82
2022/02/04 04:44:59;;;;;;;96.70;68.72;;;;;;;;;;4949065;29;20027;-83
2022/02/04 05:26:42;;;;;;;84.22;63.28;;;;;;;;;;4975448;29;20066;-83
2022/02/04 05:29:11;;;;;;;84.35;63.65;;;;;;;;;;4983256;28;20023;-83
2022/02/04 05:31:36;;;;;;;84.03;64.70;;;;;;;;;;4985288;28;20014;-83
2022/02/04 05:34:02;;;;;;;78.33;63.63;;;;;;;;;;4974073;28;20020;-83
2022/02/04 05:36:27;;;;;;;83.78;63.60;;;;;;;;;;4976419;28;20029;-83
2022/02/04 05:38:54;;;;;;;80.60;62.07;;;;;;;;;;4972419;28;20031;-84
2022/02/04 05:41:26;;;;;;;82.10;63.67;;;;;;;;;;4980837;28;20106;-84
2022/02/04 05:43:53;;;;;;;81.13;63.38;;;;;;;;;;4964641;28;20046;-84
2022/02/04 05:46:24;;;;;;;81.65;62.70;;;;;;;;;;4965364;28;20170;-84
2022/02/04 05:48:51;;;;;;;81.05;64.28;;;;;;;;;;4971067;28;20022;-82
2022/02/04 05:54:02;;;;;;;84.45;66.15;;;;;;;;;;4967467;28;20034;-84
2022/02/04 05:56:35;;;;;;;83.88;64.43;;;;;;;;;;4965351;28;20033;-84
2022/02/04 06:01:59;;;;;;;81.28;62.10;;;;;;;;;;4970375;28;20103;-78
2022/02/04 06:10:34;;;;;;;90.97;66.30;;;;;;;;;;4977225;28;20476;-76
2022/02/04 06:22:46;;;;;;;98.90;69.18;;;;;;;;;;4977158;28;20234;-76
2022/02/04 06:25:11;;;;;;;81.45;64.43;;;;;;;;;;4975787;28;20045;-76
2022/02/04 06:27:37;;;;;;;86.70;65.10;;;;;;;;;;4975248;28;20027;-77
2022/02/04 06:30:03;;;;;;;91.17;65.43;;;;;;;;;;4971599;28;20054;-77
2022/02/04 06:32:31;;;;;;;91.65;67.38;;;;;;;;;;4976868;28;20093;-79
2022/02/04 06:34:58;;;;;;;79.15;63.42;;;;;;;;;;4980746;28;20461;-79
2022/02/04 06:37:23;;;;;;;86.25;64.50;;;;;;;;;;4978057;28;20030;-78
2022/02/04 06:39:48;;;;;;;83.13;63.40;;;;;;;;;;4977351;28;20030;-79
2022/02/04 06:42:19;;;;;;;82.40;63.77;;;;;;;;;;4973956;28;20531;-80
2022/02/04 06:44:44;;;;;;;80.60;61.40;;;;;;;;;;4978050;28;20048;-79
2022/02/04 06:47:10;;;;;;;78.87;63.30;;;;;;;;;;4977276;28;20023;-79
2022/02/04 06:49:35;;;;;;;91.43;66.67;;;;;;;;;;4976973;28;20022;-80
2022/02/04 06:52:02;;;;;;;85.70;66.43;;;;;;;;;;4977089;28;20106;-78
2022/02/04 06:54:27;;;;;;;78.43;62.90;;;;;;;;;;4979609;28;20028;-78
2022/02/04 06:56:54;;;;;;;84.63;66.27;;;;;;;;;;4985590;28;20094;-79
2022/02/04 06:59:20;;;;;;;99.88;67.85;;;;;;;;;;4977447;28;20123;-76
2022/02/04 07:01:55;;;;;;;92.97;67.57;;;;;;;;;;4970185;28;20053;-79
2022/02/04 07:04:36;;;;;;;85.88;65.05;;;;;;;;;;4975399;28;20014;-80
2022/02/04 07:07:02;;;;;;;88.72;67.40;;;;;;;;;;4974208;28;20023;-79
2022/02/04 07:17:27;;;;;;;81.03;62.95;;;;;;;;;;4973688;28;20037;-80
2022/02/04 07:19:53;;;;;;;78.78;64.53;;;;;;;;;;4973592;28;20025;-79
2022/02/04 07:22:26;;;;;;;82.68;65.40;;;;;;;;;;4971971;28;20388;-81
2022/02/04 07:24:56;;;;;;;87.03;65.20;;;;;;;;;;4977756;28;20057;-80
2022/02/04 07:27:22;;;;;;;81.45;63.80;;;;;;;;;;4975268;28;20017;-78
2022/02/04 07:29:50;;;;;;;105.43;70.15;;;;;;;;;;4969893;28;20031;-77
2022/02/04 07:32:58;;;;;;;86.47;65.85;;;;;;;;;;4973307;28;20023;-80
2022/02/04 07:35:36;;;;;;;84.28;65.05;;;;;;;;;;4972292;28;20050;-76
2022/02/04 07:40:56;;;;;;;90.68;65.85;;;;;;;;;;4976261;28;20529;-81
2022/02/04 07:43:23;;;;;;;89.72;68.85;;;;;;;;;;4976660;28;20023;-81
2022/02/04 07:45:48;;;;;;;83.97;64.45;;;;;;;;;;4976521;28;20467;-79
2022/02/04 07:48:14;;;;;;;92.67;64.90;;;;;;;;;;4975241;28;20018;-78
2022/02/04 07:50:39;;;;;;;90.53;68.27;;;;;;;;;;4969696;28;20110;-79
2022/02/04 07:53:04;;;;;;;85.43;65.43;;;;;;;;;;4967349;28;20488;-77
2022/02/04 07:55:30;;;;;;;86.93;67.47;;;;;;;;;;4965311;28;20019;-77
2022/02/04 07:57:55;;;;;;;90.47;66.00;;;;;;;;;;4974386;28;20035;-76
2022/02/04 08:00:21;;;;;;;96.93;67.93;;;;;;;;;;4970012;28;20052;-77
2022/02/04 08:02:47;;;;;;;106.43;69.50;;;;;;;;;;4972795;28;20018;-76
2022/02/04 08:05:16;;;;;;;92.28;69.20;;;;;;;;;;4981009;28;20010;-80
2022/02/04 08:10:41;;;;;;;87.88;68.45;;;;;;;;;;4981143;28;20014;-85
2022/02/04 08:13:37;;;;;;;;;;;;;;;;;;4967136;28;20479;-77
2022/02/04 08:32:14;;;;;;;83.82;64.93;;;;;;;;;;4972855;28;20015;-77
2022/02/04 08:46:29;;;;;;;93.10;67.63;;;;;;;;;;4973267;28;20031;-78
2022/02/04 08:50:59;;;;;;;77.25;64.35;;;;;;;;;;4968863;28;20021;-79
2022/02/04 08:53:47;;;;;;;84.28;65.25;;;;;;;;;;5012463;23;20051;-85
2022/02/04 08:56:14;;;;;;;78.63;63.30;;;;;;;;;;4999014;28;20027;-85
2022/02/04 08:58:49;;;;;;;81.88;65.00;;;;;;;;;;4999033;28;20027;-85
2022/02/04 09:01:21;;;;;;;77.35;63.35;;;;;;;;;;4978485;28;20356;-85
2022/02/04 09:06:18;;;;;;;79.65;63.97;;;;;;;;;;4983780;28;20089;-86
2022/02/04 09:08:51;;;;;;;77.30;64.80;;;;;;;;;;4982962;28;20748;-86
2022/02/04 09:11:27;;;;;;;79.70;65.43;;;;;;;;;;4977210;28;20019;-84
2022/02/04 09:16:57;;;;;;;73.70;63.25;;;;;;;;;;4982638;28;20077;-86
2022/02/04 09:19:26;;;;;;;82.20;65.45;;;;;;;;;;4991821;28;20018;-85
2022/02/04 09:24:23;;;;;;;73.65;62.28;;;;;;;;;;4971380;28;20035;-85
2022/02/04 09:26:49;;;;;;;74.03;62.63;;;;;;;;;;4981252;28;20374;-87
2022/02/04 09:29:14;;;;;;;81.13;66.35;;;;;;;;;;4983558;28;20029;-86
2022/02/04 09:31:40;;;;;;;75.53;62.60;;;;;;;;;;4980178;28;20514;-85
2022/02/04 09:34:06;;;;;;;75.03;63.00;;;;;;;;;;4981045;28;20018;-84
2022/02/04 09:36:31;;;;;;;71.40;61.53;;;;;;;;;;4983428;28;20023;-87
2022/02/04 09:38:58;;;;;;;72.50;62.67;;;;;;;;;;4982784;28;20023;-87
2022/02/04 09:41:24;;;;;;;71.07;62.05;;;;;;;;;;4979314;28;20161;-86
2022/02/04 09:43:49;;;;;;;74.17;61.73;;;;;;;;;;4977839;28;20023;-86
2022/02/04 09:46:16;;;;;;;73.37;63.73;;;;;;;;;;4980459;28;20112;-86
2022/02/04 09:48:44;;;;;;;75.40;61.83;;;;;;;;;;4981958;28;20026;-86
2022/02/04 09:51:12;;;;;;;74.70;62.85;;;;;;;;;;4987161;28;20018;-85
2022/02/04 10:13:13;;;;;;;72.68;64.78;;;;;;;;;;4985155;28;20022;-86
2022/02/04 10:18:51;;;;;;;78.18;62.25;;;;;;;;;;4975427;28;20525;-86
2022/02/04 10:21:16;;;;;;;70.47;61.83;;;;;;;;;;4982686;28;20022;-86
2022/02/04 10:23:45;;;;;;;72.03;61.97;;;;;;;;;;4999212;28;20364;-84
2022/02/04 10:26:10;;;;;;;68.65;61.30;;;;;;;;;;4991954;28;20022;-84
2022/02/04 10:28:35;;;;;;;71.17;60.53;;;;;;;;;;4993323;28;20038;-85
2022/02/04 10:31:05;;;;;;;67.47;60.27;;;;;;;;;;5002627;28;20023;-84
2022/02/04 10:33:30;;;;;;;74.28;62.42;;;;;;;;;;5002606;28;20444;-85
2022/02/04 10:35:57;;;;;;;73.03;63.43;;;;;;;;;;5003543;28;20050;-86
2022/02/04 10:38:35;;;;;;;70.25;62.10;;;;;;;;;;5009936;28;20039;-86
2022/02/04 10:41:17;;;;;;;71.45;61.33;;;;;;;;;;4992406;28;20053;-86
2022/02/04 10:49:21;;;;;;;71.47;61.85;;;;;;;;;;4995733;28;20007;-85
2022/02/04 10:52:05;;;;;;;67.95;60.63;;;;;;;;;;5007996;28;20063;-85
2022/02/04 10:57:37;;;;;;;65.88;58.92;;;;;;;;;;4997218;28;20029;-85
2022/02/04 11:02:55;;;;;;;69.78;61.15;;;;;;;;;;4989611;28;20025;-84
2022/02/04 11:05:47;;;;;;;67.88;60.53;;;;;;;;;;5012435;28;20027;-87
2022/02/04 11:08:24;;;;;;;;;;;;;;;;;;4994008;28;20283;-85
2022/02/04 11:11:10;;;;;;;66.78;59.65;;;;;;;;;;5008045;28;19891;-85
2022/02/04 11:35:32;;;;;;;67.68;60.45;;;;;;;;;;4989609;28;20030;-86
2022/02/04 11:43:47;;;;;;;65.78;58.83;;;;;;;;;;4981202;28;20037;-86
2022/02/04 11:52:24;;;;;;;62.67;56.30;;;;;;;;;;4982428;28;20029;-85
2022/02/04 11:54:54;;;;;;;64.43;57.55;;;;;;;;;;4977485;28;20068;-85
2022/02/04 11:57:20;;;;;;;64.10;57.17;;;;;;;;;;4999775;28;20023;-86
2022/02/04 11:59:49;;;;;;;65.28;58.50;;;;;;;;;;4997086;28;20044;-85
2022/02/04 12:05:16;;;;;;;62.75;56.33;;;;;;;;;;4990097;28;20431;-86
2022/02/04 12:07:41;;;;;;;64.82;57.35;;;;;;;;;;4988604;28;20027;-85
2022/02/04 12:10:13;;;;;;;63.10;56.60;;;;;;;;;;4989969;28;20072;-86
2022/02/04 12:13:00;;;;;;;63.25;56.38;;;;;;;;;;5002115;28;20033;-86
2022/02/04 12:18:14;;;;;;;63.92;56.78;;;;;;;;;;4994179;28;20027;-85
2022/02/04 12:20:45;;;;;;;63.80;56.60;;;;;;;;;;5005991;28;20091;-85
2022/02/04 12:23:29;;;;;;;65.15;57.25;;;;;;;;;;5011198;28;20007;-85
2022/02/04 12:25:58;;;;;;;64.93;57.97;;;;;;;;;;5010282;28;20030;-86
2022/02/04 12:28:42;;;;;;;67.93;59.33;;;;;;;;;;5010391;28;20042;-86
2022/02/04 12:31:08;;;;;;;63.55;56.58;;;;;;;;;;4991171;28;20015;-85
2022/02/04 12:33:47;;;;;;;62.53;55.77;;;;;;;;;;4982453;28;20027;-87
2022/02/04 12:36:13;;;;;;;61.95;55.63;;;;;;;;;;4982463;28;20054;-85
2022/02/04 12:38:38;;;;;;;61.28;54.85;;;;;;;;;;4996779;28;20026;-86
2022/02/04 12:41:04;;;;;;;62.07;55.70;;;;;;;;;;4992842;28;20035;-86
2022/02/04 12:43:33;;;;;;;64.60;57.87;;;;;;;;;;4989766;28;20050;-87
2022/02/04 12:45:58;;;;;;;61.90;55.40;;;;;;;;;;5002748;28;20085;-85
2022/02/04 12:48:27;;;;;;;60.67;54.60;;;;;;;;;;4991982;28;20019;-85
2022/02/04 12:50:53;;;;;;;60.47;54.13;;;;;;;;;;4986132;28;20011;-86
2022/02/04 12:53:26;;;;;;;62.40;55.63;;;;;;;;;;4984205;28;20027;-85
2022/02/04 12:56:14;;;;;;;60.28;53.97;;;;;;;;;;5002879;28;20034;-86
2022/02/04 12:59:25;;;;;;;61.05;54.58;;;;;;;;;;4986055;28;20129;-86
2022/02/04 13:09:50;;;;;;;60.17;54.03;;;;;;;;;;4997729;28;20045;-83
2022/02/04 13:12:19;;;;;;;59.50;53.58;;;;;;;;;;5013507;28;20034;-86
2022/02/04 13:14:48;;;;;;;60.58;54.17;;;;;;;;;;4993017;28;20095;-85
2022/02/04 13:17:27;;;;;;;60.17;53.83;;;;;;;;;;5000440;28;20022;-84
2022/02/04 13:19:52;;;;;;;59.10;53.30;;;;;;;;;;4998069;28;20079;-86
2022/02/04 13:22:20;;;;;;;60.63;54.47;;;;;;;;;;4994831;28;20018;-86
2022/02/04 13:24:45;;;;;;;58.90;53.20;;;;;;;;;;5009562;28;20057;-84
2022/02/04 13:27:11;;;;;;;60.53;54.20;;;;;;;;;;4995571;28;20027;-85
2022/02/04 13:29:37;;;;;;;63.35;55.67;;;;;;;;;;5012044;28;20007;-85
2022/02/04 13:32:19;;;;;;;61.03;54.53;;;;;;;;;;5008492;28;20045;-85
2022/02/04 13:34:44;;;;;;;64.15;56.38;;;;;;;;;;4997973;28;20023;-86
2022/02/04 13:37:22;;;;;;;63.83;56.07;;;;;;;;;;5013207;28;20110;-84
2022/02/04 13:39:58;;;;;;;60.60;54.20;;;;;;;;;;5009715;28;20045;-86
2022/02/04 13:42:40;;;;;;;60.75;54.22;;;;;;;;;;5009626;28;20042;-85
2022/02/04 13:45:23;;;;;;;57.72;52.00;;;;;;;;;;5014801;28;20030;-84
2022/02/04 13:47:59;;;;;;;58.28;52.38;;;;;;;;;;4988497;28;20161;-86
2022/02/04 13:50:42;;;;;;;59.30;53.30;;;;;;;;;;4973960;28;20462;-86
2022/02/04 13:53:16;;;;;;;57.13;51.53;;;;;;;;;;4995487;28;20019;-85
2022/02/04 13:58:22;;;;;;;57.47;51.78;;;;;;;;;;4984920;28;20110;-86
2022/02/04 14:01:00;;;;;;;58.40;52.50;;;;;;;;;;4996385;28;20374;-86
2022/02/04 14:03:33;;;;;;;59.60;53.28;;;;;;;;;;4982818;28;20467;-86
2022/02/04 14:06:08;;;;;;;57.72;51.95;;;;;;;;;;5001038;28;20098;-86
2022/02/04 14:08:44;;;;;;;56.88;51.47;;;;;;;;;;4989393;28;20086;-84
2022/02/04 14:11:10;;;;;;;57.20;51.70;;;;;;;;;;4987668;28;20023;-86
2022/02/04 14:13:35;;;;;;;56.92;51.25;;;;;;;;;;4984848;28;20500;-86
2022/02/04 14:16:02;;;;;;;56.77;51.10;;;;;;;;;;4985021;28;20037;-85
2022/02/04 14:18:28;;;;;;;56.28;50.80;;;;;;;;;;4984796;28;20059;-85
2022/02/04 14:20:54;;;;;;;58.45;52.13;;;;;;;;;;4980586;28;20053;-85
2022/02/04 14:23:19;;;;;;;58.23;52.33;;;;;;;;;;4983439;28;20094;-84
2022/02/04 14:25:55;;;;;;;56.27;50.97;;;;;;;;;;5000221;28;20055;-86
2022/02/04 14:28:26;;;;;;;56.35;51.15;;;;;;;;;;4983206;28;20052;-86
2022/02/04 14:31:00;;;;;;;57.80;52.20;;;;;;;;;;4978567;28;20018;-86
2022/02/04 14:36:30;;;;;;;57.08;51.38;;;;;;;;;;4978756;28;20031;-86
2022/02/04 14:51:12;;;;;;;59.28;53.08;;;;;;;;;;4961387;29;20099;-82
2022/02/04 15:00:54;;;;;;;59.05;52.97;;;;;;;;;;4963297;29;20397;-79
2022/02/04 15:03:26;;;;;;;57.55;51.95;;;;;;;;;;4961348;29;20023;-82
2022/02/04 15:06:02;;;;;;;56.75;51.30;;;;;;;;;;4961353;29;20023;-81
2022/02/04 15:08:29;;;;;;;56.10;50.90;;;;;;;;;;4958882;28;20042;-80
2022/02/04 15:10:55;;;;;;;57.15;51.50;;;;;;;;;;4966956;29;20059;-80
2022/02/04 15:13:21;;;;;;;57.00;51.53;;;;;;;;;;4970712;28;20019;-82
2022/02/04 15:15:46;;;;;;;55.57;50.50;;;;;;;;;;4967908;28;20071;-81
2022/02/04 15:18:12;;;;;;;56.97;51.57;;;;;;;;;;4965344;28;20031;-83
2022/02/04 15:20:37;;;;;;;57.97;52.35;;;;;;;;;;4978344;28;20020;-85
2022/02/04 15:23:03;;;;;;;55.15;50.20;;;;;;;;;;4963347;29;20055;-81
2022/02/04 15:25:28;;;;;;;56.77;51.07;;;;;;;;;;4963433;29;20024;-81
2022/02/04 15:28:15;;;;;;;56.40;51.13;;;;;;;;;;4956101;28;20110;-81
2022/02/04 15:30:43;;;;;;;58.40;52.45;;;;;;;;;;4964005;29;20019;-81
2022/02/04 15:33:09;;;;;;;57.78;52.05;;;;;;;;;;4969586;28;20019;-80
2022/02/04 15:35:35;;;;;;;57.25;51.65;;;;;;;;;;4992202;28;20019;-82
2022/02/04 15:38:00;;;;;;;56.90;51.47;;;;;;;;;;4959151;28;20050;-80
2022/02/04 15:40:25;;;;;;;58.25;52.42;;;;;;;;;;4976365;28;20445;-81
2022/02/04 15:42:59;;;;;;;61.93;54.50;;;;;;;;;;4960994;28;20024;-80
2022/02/04 15:50:44;;;;;;;57.55;51.67;;;;;;;;;;4960782;29;20026;-80
2022/02/04 15:53:23;;;;;;;56.17;50.97;;;;;;;;;;4959335;29;20019;-81
2022/02/04 16:01:24;;;;;;;58.00;51.95;;;;;;;;;;4958132;29;20050;-82
2022/02/04 16:06:17;;;;;;;56.80;51.28;;;;;;;;;;4974767;28;20027;-80
2022/02/04 16:08:43;;;;;;;58.53;52.35;;;;;;;;;;4967608;28;20015;-79
2022/02/04 16:11:31;;;;;;;55.92;50.63;;;;;;;;;;4973347;29;20103;-81
2022/02/04 16:16:37;;;;;;;58.63;52.55;;;;;;;;;;4980157;28;20019;-80
2022/02/04 16:22:06;;;;;;;57.50;52.00;;;;;;;;;;4972081;28;20130;-80
2022/02/04 16:24:41;;;;;;;59.92;53.60;;;;;;;;;;4965501;28;20090;-77
2022/02/04 16:29:54;;;;;;;57.55;51.92;;;;;;;;;;4924061;28;20027;-77
2022/02/04 16:32:19;;;;;;;59.00;53.10;;;;;;;;;;4959241;28;20019;-78
2022/02/04 16:34:53;;;;;;;58.70;52.83;;;;;;;;;;4958622;28;20094;-81
2022/02/04 16:37:27;;;;;;;58.78;53.08;;;;;;;;;;4955573;28;20046;-78
2022/02/04 16:39:52;;;;;;;59.05;53.13;;;;;;;;;;4956645;29;20227;-79
2022/02/04 16:42:18;;;;;;;60.37;54.20;;;;;;;;;;4954790;28;20031;-78
2022/02/04 16:44:43;;;;;;;58.83;53.03;;;;;;;;;;4964886;28;20027;-78
2022/02/04 16:47:08;;;;;;;61.53;54.90;;;;;;;;;;4956048;28;20027;-78
2022/02/04 16:49:34;;;;;;;59.80;53.87;;;;;;;;;;4957566;29;20477;-78
2022/02/04 16:51:59;;;;;;;58.67;52.95;;;;;;;;;;4955256;28;20528;-77
2022/02/04 16:54:25;;;;;;;57.60;52.10;;;;;;;;;;4965369;28;20038;-79
2022/02/04 16:56:51;;;;;;;61.05;54.35;;;;;;;;;;4959111;28;20030;-80
2022/02/04 16:59:16;;;;;;;58.85;53.00;;;;;;;;;;4957156;28;20078;-78
2022/02/04 17:01:42;;;;;;;58.63;52.90;;;;;;;;;;4958885;28;20118;-79
2022/02/04 17:04:07;;;;;;;59.20;53.10;;;;;;;;;;4953915;28;20055;-79
2022/02/04 17:06:37;;;;;;;60.87;54.23;;;;;;;;;;4963864;28;20069;-81
2022/02/04 17:09:21;;;;;;;58.78;52.83;;;;;;;;;;4951279;29;20027;-78
2022/02/04 17:11:47;;;;;;;58.20;52.25;;;;;;;;;;4957839;28;20022;-81
2022/02/04 17:14:14;;;;;;;58.38;52.45;;;;;;;;;;4967533;28;20718;-76
2022/02/04 17:16:42;;;;;;;66.57;55.72;;;;;;;;;;4960577;28;20256;-79
2022/02/04 17:19:18;;;;;;;56.67;51.08;;;;;;;;;;4960514;29;20037;-79
2022/02/04 17:21:43;;;;;;;55.38;49.88;;;;;;;;;;4963739;28;20027;-80
2022/02/04 17:24:13;;;;;;;58.10;51.80;;;;;;;;;;4986247;28;20019;-79
2022/02/04 17:26:40;;;;;;;61.22;52.03;;;;;;;;;;4971283;28;20024;-79
2022/02/04 17:29:06;;;;;;;61.97;52.08;;;;;;;;;;4971042;28;20027;-80
2022/02/04 17:31:31;;;;;;;54.03;48.83;;;;;;;;;;4963149;29;20485;-81
2022/02/04 17:33:56;;;;;;;54.07;48.73;;;;;;;;;;4971048;28;20078;-79
2022/02/04 17:36:21;;;;;;;57.67;51.17;;;;;;;;;;4974976;28;20023;-79
2022/02/04 17:38:47;;;;;;;52.50;47.67;;;;;;;;;;4969042;28;20034;-77
2022/02/04 17:41:15;;;;;;;57.30;51.03;;;;;;;;;;5003501;28;20070;-79
2022/02/04 17:43:43;;;;;;;53.90;48.50;;;;;;;;;;4973566;28;20046;-79
2022/02/04 17:46:08;;;;;;;52.33;47.53;;;;;;;;;;4969661;29;20027;-81
2022/02/04 17:48:43;;;;;;;53.10;48.03;;;;;;;;;;4972439;28;20066;-82
2022/02/04 17:51:19;;;;;;;54.20;48.85;;;;;;;;;;4982089;28;20281;-81
2022/02/04 17:53:55;;;;;;;54.00;48.70;;;;;;;;;;4964530;29;20083;-83
2022/02/04 17:56:33;;;;;;;55.40;49.63;;;;;;;;;;4966481;28;20253;-82
2022/02/04 18:01:59;;;;;;;53.45;48.25;;;;;;;;;;4962990;28;20038;-82
2022/02/04 18:07:11;;;;;;;53.58;48.58;;;;;;;;;;4961024;28;20054;-82
2022/02/04 18:09:37;;;;;;;54.45;49.10;;;;;;;;;;4959800;28;20016;-82
2022/02/04 18:12:02;;;;;;;;;;;;;;;;;;4957688;28;20012;-81
2022/02/04 18:14:28;;;;;;;53.28;48.30;;;;;;;;;;4978837;28;19918;-81
2022/02/04 18:16:53;;;;;;;55.80;49.97;;;;;;;;;;4959671;29;20492;-81
2022/02/04 18:19:18;;;;;;;54.30;49.00;;;;;;;;;;4959908;28;20086;-81
2022/02/04 18:21:43;;;;;;;53.73;48.63;;;;;;;;;;4960280;28;20051;-82
2022/02/04 18:24:12;;;;;;;51.30;46.93;;;;;;;;;;4963191;29;20030;-82
2022/02/04 18:26:38;;;;;;;63.85;53.50;;;;;;;;;;4964463;28;20560;-81
2022/02/04 18:29:03;;;;;;;53.63;48.67;;;;;;;;;;4960863;29;20051;-81
2022/02/04 18:31:30;;;;;;;55.03;49.38;;;;;;;;;;4964630;28;20511;-82
2022/02/04 18:33:56;;;;;;;53.00;48.13;;;;;;;;;;4971554;28;20038;-82
2022/02/04 18:36:21;;;;;;;54.35;49.10;;;;;;;;;;4963168;28;20152;-81
2022/02/04 18:38:54;;;;;;;55.40;49.77;;;;;;;;;;4952882;28;20028;-81
2022/02/04 18:41:47;;;;;;;53.55;48.50;;;;;;;;;;4957383;28;20031;-82
2022/02/04 18:44:12;;;;;;;54.13;48.95;;;;;;;;;;4950572;28;20505;-82
2022/02/04 18:46:58;;;;;;;56.90;50.90;;;;;;;;;;4954634;28;20091;-81
2022/02/04 18:49:41;;;;;;;54.35;49.25;;;;;;;;;;4954698;28;20074;-80
2022/02/04 18:53:07;;;;;;;54.50;49.28;;;;;;;;;;4959787;28;20019;-83
2022/02/04 18:57:36;;;;;;;54.42;49.15;;;;;;;;;;4947055;29;20561;-80
2022/02/04 19:00:10;;;;;;;53.10;48.40;;;;;;;;;;4958002;28;20057;-83
2022/02/04 19:02:38;;;;;;;55.70;50.05;;;;;;;;;;4965804;28;20616;-82
2022/02/04 19:05:08;;;;;;;54.45;49.30;;;;;;;;;;4959040;29;20049;-82
2022/02/04 19:07:50;;;;;;;54.60;49.33;;;;;;;;;;4964931;28;20038;-79
2022/02/04 19:10:15;;;;;;;60.15;53.95;;;;;;;;;;4953355;28;20035;-83
2022/02/04 19:12:48;;;;;;;60.37;53.80;;;;;;;;;;4959023;28;20027;-79
2022/02/04 19:15:27;;;;;;;55.50;50.03;;;;;;;;;;4978114;28;20023;-82
2022/02/04 19:17:57;;;;;;;54.40;49.15;;;;;;;;;;4950947;28;20020;-82
2022/02/04 19:20:33;;;;;;;56.15;50.13;;;;;;;;;;4986320;28;20020;-81
2022/02/04 19:23:02;;;;;;;55.72;49.97;;;;;;;;;;4957819;28;20094;-82
2022/02/04 19:25:33;;;;;;;52.75;48.05;;;;;;;;;;4960024;28;20477;-82
2022/02/04 19:27:58;;;;;;;53.30;48.35;;;;;;;;;;4954233;28;20109;-81
2022/02/04 19:30:25;;;;;;;52.80;47.93;;;;;;;;;;4958523;29;20053;-82
2022/02/04 19:32:50;;;;;;;54.50;49.15;;;;;;;;;;4956891;28;20478;-81
2022/02/04 19:35:15;;;;;;;55.57;49.73;;;;;;;;;;4957800;29;20020;-84
2022/02/04 19:37:40;;;;;;;53.97;48.80;;;;;;;;;;4956419;28;20099;-81
2022/02/04 19:40:07;;;;;;;54.25;48.90;;;;;;;;;;4991062;28;20031;-81
2022/02/04 19:42:36;;;;;;;60.80;52.83;;;;;;;;;;4956406;28;20059;-82
2022/02/04 19:45:07;;;;;;;52.65;47.80;;;;;;;;;;4959174;28;20493;-79
2022/02/04 19:47:57;;;;;;;53.97;48.72;;;;;;;;;;4956916;28;20030;-81
2022/02/04 19:50:31;;;;;;;53.88;48.72;;;;;;;;;;4955655;28;20047;-80
2022/02/04 19:53:16;;;;;;;54.40;48.92;;;;;;;;;;4961074;28;20023;-78
2022/02/04 20:16:33;;;;;;;51.97;47.25;;;;;;;;;;4983913;28;20027;-80
2022/02/04 20:23:41;;;;;;;52.63;47.63;;;;;;;;;;4908841;29;20020;-79
2022/02/04 20:26:08;;;;;;;52.30;47.40;;;;;;;;;;4918376;29;20024;-79
2022/02/04 20:28:33;;;;;;;52.58;47.75;;;;;;;;;;4925380;28;20114;-82
2022/02/04 20:30:59;;;;;;;51.97;47.30;;;;;;;;;;4957139;28;20038;-82
2022/02/04 20:33:24;;;;;;;52.60;47.50;;;;;;;;;;4959275;28;20034;-80
2022/02/04 20:35:49;;;;;;;52.33;47.53;;;;;;;;;;4965840;28;20055;-82